Time;durP1;ratioP1;P1;durP2;ratioP2;P2;SDS_P1;SDS_P2;PMS_P1;PMS_P2;Temp;Humidity;BMP_temperature;BMP_pressure;BME280_temperature;BME280_humidity;BME280_pressure;Samples;Min_cycle;Max_cycle;Signal;HPM_P1;HPM_P2
2021/03/09 00:00:39;;;;;;;17.00;9.38;;;-1.20;99.90;;;;;;5002000;28;20029;-63
2021/03/09 00:03:04;;;;;;;14.93;8.50;;;-1.20;99.90;;;;;;4986595;28;20058;-63
2021/03/09 00:05:30;;;;;;;16.48;9.48;;;-1.30;99.90;;;;;;4983646;28;20037;-63
2021/03/09 00:07:56;;;;;;;15.73;8.95;;;-1.40;99.90;;;;;;5000774;28;20042;-62
2021/03/09 00:10:21;;;;;;;16.73;8.93;;;-1.40;99.90;;;;;;4993613;28;20030;-63
2021/03/09 00:12:47;;;;;;;17.33;9.63;;;-1.50;99.90;;;;;;4994328;28;20040;-63
2021/03/09 00:15:13;;;;;;;17.23;9.55;;;-1.50;99.90;;;;;;4993604;28;20109;-62
2021/03/09 00:17:39;;;;;;;17.42;9.20;;;-1.50;99.90;;;;;;4994523;28;20404;-63
2021/03/09 00:20:05;;;;;;;21.50;10.48;;;-1.50;99.90;;;;;;4993973;28;20337;-64
2021/03/09 00:22:31;;;;;;;20.50;11.13;;;-1.60;99.90;;;;;;4997795;28;20034;-63
2021/03/09 00:24:57;;;;;;;16.05;10.13;;;-1.60;99.90;;;;;;4995737;28;20032;-64
2021/03/09 00:27:22;;;;;;;21.50;11.10;;;-1.60;99.90;;;;;;4993181;28;20038;-63
2021/03/09 00:29:48;;;;;;;19.35;10.85;;;-1.70;99.90;;;;;;4994165;28;20459;-63
2021/03/09 00:32:14;;;;;;;18.00;9.98;;;-1.70;99.90;;;;;;4993341;28;20480;-62
2021/03/09 00:34:39;;;;;;;20.58;11.90;;;-1.60;99.90;;;;;;4994032;28;20109;-62
2021/03/09 00:37:05;;;;;;;20.92;10.00;;;-1.70;99.90;;;;;;4995678;28;20669;-64
2021/03/09 00:39:32;;;;;;;20.65;10.35;;;-1.60;99.90;;;;;;4994212;28;20425;-62
2021/03/09 00:41:57;;;;;;;18.55;10.80;;;-1.70;99.90;;;;;;4960244;28;20026;-63
2021/03/09 00:44:23;;;;;;;21.00;10.80;;;-1.70;99.90;;;;;;4975996;28;20034;-63
2021/03/09 00:46:50;;;;;;;18.95;10.27;;;-1.80;99.90;;;;;;4993289;28;20022;-63
2021/03/09 00:49:16;;;;;;;20.98;10.50;;;-1.80;99.90;;;;;;4993448;28;20038;-63
2021/03/09 00:51:42;;;;;;;23.10;11.05;;;-1.80;99.90;;;;;;4993883;28;20044;-62
2021/03/09 00:54:07;;;;;;;17.98;10.10;;;-1.80;99.90;;;;;;4992648;28;20050;-63
2021/03/09 00:56:33;;;;;;;17.10;10.50;;;-1.80;99.90;;;;;;4993517;28;20022;-62
2021/03/09 00:58:59;;;;;;;19.58;9.40;;;-1.80;99.90;;;;;;4993869;28;20108;-62
2021/03/09 01:01:24;;;;;;;16.23;10.55;;;-1.80;99.90;;;;;;4993404;28;20587;-62
2021/03/09 01:03:50;;;;;;;18.30;9.98;;;-1.90;99.90;;;;;;4994050;28;20026;-62
2021/03/09 01:06:15;;;;;;;18.17;10.45;;;-1.90;99.90;;;;;;4992811;28;20368;-62
2021/03/09 01:08:41;;;;;;;19.80;10.55;;;-2.00;99.90;;;;;;4997162;28;20030;-62
2021/03/09 01:11:07;;;;;;;20.13;11.05;;;-2.00;99.90;;;;;;4991331;28;20030;-63
2021/03/09 01:13:32;;;;;;;20.02;10.75;;;-2.00;99.90;;;;;;4993493;28;20042;-62
2021/03/09 01:15:58;;;;;;;19.83;10.98;;;-2.00;99.90;;;;;;4976244;28;20030;-62
2021/03/09 01:18:24;;;;;;;19.42;10.98;;;-2.00;99.90;;;;;;4992605;28;20029;-62
2021/03/09 01:20:49;;;;;;;23.17;11.35;;;-2.10;99.90;;;;;;4992857;28;20037;-62
2021/03/09 01:23:15;;;;;;;20.67;10.77;;;-2.00;99.90;;;;;;4992487;28;20030;-62
2021/03/09 01:25:42;;;;;;;19.73;10.48;;;-2.00;99.90;;;;;;4993109;28;20033;-62
2021/03/09 01:28:08;;;;;;;19.55;10.95;;;-2.00;99.90;;;;;;4992336;28;20038;-63
2021/03/09 01:30:34;;;;;;;16.98;10.07;;;-2.00;99.90;;;;;;4993393;28;20026;-62
2021/03/09 01:33:00;;;;;;;21.17;12.25;;;-2.00;99.90;;;;;;4992529;28;20466;-62
2021/03/09 01:35:26;;;;;;;21.10;11.68;;;-2.10;99.90;;;;;;4974290;28;20096;-62
2021/03/09 01:37:51;;;;;;;26.50;12.32;;;-2.00;99.90;;;;;;4993063;28;20097;-62
2021/03/09 01:40:17;;;;;;;19.33;11.07;;;-2.00;99.90;;;;;;4983410;28;20533;-62
2021/03/09 01:42:43;;;;;;;20.45;12.65;;;-2.00;99.90;;;;;;4990977;28;20040;-62
2021/03/09 01:45:09;;;;;;;20.70;12.05;;;-2.00;99.90;;;;;;4973522;28;20027;-63
2021/03/09 01:47:43;;;;;;;20.75;11.20;;;-1.90;99.90;;;;;;4958365;28;20499;-62
2021/03/09 01:50:12;;;;;;;21.48;10.85;;;-1.90;99.90;;;;;;4972107;28;20495;-63
2021/03/09 01:52:39;;;;;;;19.05;11.20;;;-1.90;99.90;;;;;;4956585;28;20088;-62
2021/03/09 01:55:07;;;;;;;21.20;10.80;;;-1.90;99.90;;;;;;4982915;28;20038;-65
2021/03/09 01:57:33;;;;;;;21.55;11.32;;;-2.00;99.90;;;;;;4992422;28;20023;-62
2021/03/09 02:00:03;;;;;;;24.08;11.98;;;-2.00;99.90;;;;;;4983678;28;20026;-63
2021/03/09 02:02:29;;;;;;;17.90;11.05;;;-2.00;99.90;;;;;;4992196;28;20041;-63
2021/03/09 02:04:54;;;;;;;22.88;11.30;;;-2.00;99.90;;;;;;4985625;28;20043;-63
2021/03/09 02:07:20;;;;;;;22.02;11.50;;;-2.00;99.90;;;;;;4972946;28;20524;-63
2021/03/09 02:09:45;;;;;;;21.95;11.65;;;-2.10;99.90;;;;;;4990554;28;20089;-63
2021/03/09 02:12:26;;;;;;;20.42;11.52;;;-2.10;99.90;;;;;;4959217;28;20125;-63
2021/03/09 02:15:23;;;;;;;20.30;11.07;;;-2.10;99.90;;;;;;4973572;28;20062;-63
2021/03/09 02:18:09;;;;;;;22.75;11.85;;;-2.10;99.90;;;;;;4980584;28;20039;-63
2021/03/09 02:21:04;;;;;;;21.85;11.43;;;-2.10;99.90;;;;;;4973167;28;20097;-64
2021/03/09 02:24:00;;;;;;;20.88;11.15;;;-2.20;99.90;;;;;;4980595;28;20035;-63
2021/03/09 02:26:59;;;;;;;19.80;11.30;;;-2.20;99.90;;;;;;4973714;28;20038;-63
2021/03/09 02:29:25;;;;;;;23.10;11.90;;;-2.20;99.90;;;;;;4976639;28;20158;-63
2021/03/09 02:31:52;;;;;;;20.35;10.90;;;-2.20;99.90;;;;;;4976547;28;20487;-63
2021/03/09 02:34:28;;;;;;;18.15;11.48;;;-2.20;99.90;;;;;;4973229;28;20058;-63
2021/03/09 02:36:56;;;;;;;23.23;11.48;;;-2.20;99.90;;;;;;4987493;28;20022;-63
2021/03/09 02:39:25;;;;;;;21.85;11.27;;;-2.20;99.90;;;;;;4982261;28;20043;-63
2021/03/09 02:41:54;;;;;;;21.95;12.68;;;-2.30;99.90;;;;;;4986783;28;20552;-64
2021/03/09 02:44:22;;;;;;;22.05;11.75;;;-2.30;99.90;;;;;;4979556;28;20038;-63
2021/03/09 02:46:49;;;;;;;22.95;12.07;;;-2.40;99.90;;;;;;4979944;28;20484;-63
2021/03/09 02:49:16;;;;;;;23.98;12.75;;;-2.40;99.90;;;;;;4978495;28;20031;-63
2021/03/09 02:51:44;;;;;;;19.88;11.52;;;-2.40;99.90;;;;;;4975938;28;20035;-63
2021/03/09 02:54:12;;;;;;;19.83;11.57;;;-2.40;99.90;;;;;;4985803;28;20026;-63
2021/03/09 02:56:39;;;;;;;22.38;11.95;;;-2.50;99.90;;;;;;4955550;28;20365;-63
2021/03/09 02:59:10;;;;;;;23.30;12.25;;;-2.50;99.90;;;;;;4973015;28;20057;-65
2021/03/09 03:01:37;;;;;;;21.20;11.63;;;-2.60;99.90;;;;;;4972816;28;20026;-63
2021/03/09 03:04:05;;;;;;;23.25;11.75;;;-2.60;99.90;;;;;;4972450;28;20085;-63
2021/03/09 03:06:36;;;;;;;25.08;13.00;;;-2.60;99.90;;;;;;4979827;28;20527;-63
2021/03/09 03:09:02;;;;;;;23.85;12.63;;;-2.50;99.90;;;;;;4976573;28;20476;-63
2021/03/09 03:11:28;;;;;;;22.92;12.73;;;-2.60;99.90;;;;;;4957138;28;20039;-63
2021/03/09 03:13:56;;;;;;;20.00;11.43;;;-2.50;99.90;;;;;;4973577;28;20077;-63
2021/03/09 03:16:24;;;;;;;26.38;13.63;;;-2.50;99.90;;;;;;4989940;28;20038;-62
2021/03/09 03:18:51;;;;;;;22.58;12.77;;;-2.60;99.90;;;;;;4967069;28;20463;-63
2021/03/09 03:21:17;;;;;;;25.85;12.43;;;-2.60;99.90;;;;;;4983264;28;20103;-63
2021/03/09 03:23:44;;;;;;;25.00;12.30;;;-2.50;99.90;;;;;;4976828;28;20035;-64
2021/03/09 03:26:10;;;;;;;23.17;12.68;;;-2.50;99.90;;;;;;4972741;28;20027;-66
2021/03/09 03:28:44;;;;;;;26.75;13.30;;;-2.50;99.90;;;;;;4972370;28;20059;-64
2021/03/09 03:31:10;;;;;;;24.85;12.45;;;-2.60;99.90;;;;;;4982819;28;20046;-63
2021/03/09 03:33:37;;;;;;;23.33;11.50;;;-2.60;99.90;;;;;;4991743;28;20507;-64
2021/03/09 03:36:05;;;;;;;22.05;12.25;;;-2.60;99.90;;;;;;4978820;28;20350;-63
2021/03/09 03:38:33;;;;;;;26.77;12.85;;;-2.70;99.90;;;;;;4980570;28;20510;-63
2021/03/09 03:41:00;;;;;;;26.20;13.45;;;-2.70;99.90;;;;;;4979380;28;20050;-63
2021/03/09 03:43:26;;;;;;;23.05;13.07;;;-2.70;99.90;;;;;;4985618;28;20227;-63
2021/03/09 03:45:51;;;;;;;25.65;13.80;;;-2.70;99.90;;;;;;4972089;28;20468;-63
2021/03/09 03:48:17;;;;;;;23.38;12.98;;;-2.70;99.90;;;;;;4957899;28;20038;-63
2021/03/09 03:50:43;;;;;;;24.58;12.82;;;-2.70;99.90;;;;;;4982931;28;20026;-63
2021/03/09 03:53:26;;;;;;;21.85;12.38;;;-2.70;99.90;;;;;;4985429;28;20022;-65
2021/03/09 03:56:26;;;;;;;22.35;12.95;;;-2.60;99.90;;;;;;4986285;28;20030;-63
2021/03/09 03:59:03;;;;;;;22.65;12.90;;;-2.70;99.90;;;;;;4983077;28;20089;-63
2021/03/09 04:01:30;;;;;;;22.77;13.05;;;-2.60;99.90;;;;;;4988493;28;20033;-63
2021/03/09 04:03:58;;;;;;;24.35;12.93;;;-2.60;99.90;;;;;;4994389;28;20034;-63
2021/03/09 04:06:28;;;;;;;22.10;12.02;;;-2.70;99.90;;;;;;4983533;28;20023;-63
2021/03/09 04:09:03;;;;;;;21.55;12.57;;;-2.70;99.90;;;;;;4992866;28;20030;-63
2021/03/09 04:11:30;;;;;;;30.40;15.10;;;-2.80;99.90;;;;;;4993529;28;20680;-63
2021/03/09 04:13:57;;;;;;;28.70;14.60;;;-2.70;99.90;;;;;;4978748;28;20031;-63
2021/03/09 04:16:24;;;;;;;27.48;14.90;;;-2.70;99.90;;;;;;4974712;28;20027;-63
2021/03/09 04:18:52;;;;;;;25.52;13.68;;;-2.70;99.90;;;;;;4983158;28;20031;-63
2021/03/09 04:21:18;;;;;;;26.70;13.80;;;-2.70;99.90;;;;;;4974784;28;20034;-63
2021/03/09 04:23:44;;;;;;;25.38;13.27;;;-2.70;99.90;;;;;;4976003;28;20031;-63
2021/03/09 04:26:11;;;;;;;26.80;13.95;;;-2.70;99.90;;;;;;4982695;28;20037;-64
2021/03/09 04:28:39;;;;;;;24.73;13.02;;;-2.70;99.90;;;;;;4982982;28;20491;-61
2021/03/09 04:31:04;;;;;;;22.75;13.25;;;-2.80;99.90;;;;;;4980403;28;20038;-61
2021/03/09 04:33:30;;;;;;;23.83;13.00;;;-2.80;99.90;;;;;;4992706;28;20045;-62
2021/03/09 04:35:56;;;;;;;25.88;13.13;;;-2.90;99.90;;;;;;4982669;28;20054;-62
2021/03/09 04:38:23;;;;;;;26.60;14.00;;;-2.90;99.90;;;;;;4988183;28;20050;-62
2021/03/09 04:40:52;;;;;;;24.70;13.63;;;-2.90;99.90;;;;;;4993442;28;20080;-62
2021/03/09 04:43:18;;;;;;;27.25;14.25;;;-3.00;99.90;;;;;;4981065;28;20614;-61
2021/03/09 04:45:45;;;;;;;32.72;15.32;;;-3.00;99.90;;;;;;4976751;28;20094;-62
2021/03/09 04:48:11;;;;;;;30.00;14.93;;;-3.00;99.90;;;;;;4975905;28;20030;-65
2021/03/09 04:50:38;;;;;;;30.15;15.02;;;-3.00;99.90;;;;;;4970230;28;20089;-61
2021/03/09 04:53:07;;;;;;;29.55;15.73;;;-3.10;99.90;;;;;;4985015;28;20038;-61
2021/03/09 04:55:33;;;;;;;31.23;15.27;;;-3.10;99.90;;;;;;4984015;28;20052;-61
2021/03/09 04:58:01;;;;;;;29.35;15.60;;;-3.20;99.90;;;;;;4993577;28;20038;-61
2021/03/09 05:00:28;;;;;;;37.63;16.95;;;-3.20;99.90;;;;;;4967566;28;20039;-63
2021/03/09 05:02:53;;;;;;;37.20;16.63;;;-3.20;99.90;;;;;;4976684;28;20038;-62
2021/03/09 05:05:23;;;;;;;36.42;16.10;;;-3.10;99.90;;;;;;4973126;28;20093;-62
2021/03/09 05:07:50;;;;;;;34.97;16.60;;;-3.10;99.90;;;;;;4956827;28;20084;-61
2021/03/09 05:10:17;;;;;;;26.58;14.45;;;-3.20;99.90;;;;;;4979669;28;20138;-64
2021/03/09 05:12:45;;;;;;;30.23;14.75;;;-3.20;99.90;;;;;;4961407;28;20126;-64
2021/03/09 05:15:11;;;;;;;25.63;14.63;;;-3.20;99.90;;;;;;4983358;28;20030;-66
2021/03/09 05:17:37;;;;;;;27.17;15.10;;;-3.20;99.90;;;;;;4981893;28;20150;-62
2021/03/09 05:20:05;;;;;;;34.40;16.92;;;-3.20;99.90;;;;;;4985293;28;21587;-62
2021/03/09 05:22:31;;;;;;;30.98;16.58;;;-3.20;99.90;;;;;;4985356;28;20030;-62
2021/03/09 05:24:56;;;;;;;40.03;17.10;;;-3.20;99.90;;;;;;4981909;28;20037;-63
2021/03/09 05:27:22;;;;;;;53.08;19.35;;;-3.20;99.90;;;;;;4972839;28;20030;-63
2021/03/09 05:29:47;;;;;;;42.20;18.55;;;-3.30;99.90;;;;;;4984600;28;20029;-62
2021/03/09 05:32:13;;;;;;;40.88;17.55;;;-3.20;99.90;;;;;;4985074;28;20042;-65
2021/03/09 05:34:39;;;;;;;34.83;17.08;;;-3.20;99.90;;;;;;4982582;28;20031;-63
2021/03/09 05:37:10;;;;;;;34.42;16.45;;;-3.10;99.90;;;;;;4985377;28;20471;-63
2021/03/09 05:39:37;;;;;;;33.33;16.92;;;-3.10;99.90;;;;;;4984076;28;20397;-63
2021/03/09 05:42:05;;;;;;;35.60;16.77;;;-3.10;99.90;;;;;;4983605;28;20046;-63
2021/03/09 05:44:32;;;;;;;34.42;17.50;;;-3.10;99.90;;;;;;4982969;28;20606;-63
2021/03/09 05:46:58;;;;;;;32.97;16.63;;;-3.10;99.90;;;;;;4982512;28;20037;-63
2021/03/09 05:49:24;;;;;;;33.28;17.13;;;-3.10;99.90;;;;;;4981310;28;20031;-63
2021/03/09 05:51:50;;;;;;;33.42;16.17;;;-3.10;99.90;;;;;;4984042;28;20039;-63
2021/03/09 05:54:16;;;;;;;38.88;18.13;;;-3.10;99.90;;;;;;4985912;28;20031;-63
2021/03/09 05:56:42;;;;;;;37.08;18.15;;;-3.10;99.90;;;;;;4971484;28;20086;-64
2021/03/09 05:59:08;;;;;;;32.28;16.50;;;-3.10;99.90;;;;;;4984072;28;20034;-64
2021/03/09 06:01:34;;;;;;;38.05;17.15;;;-3.10;99.90;;;;;;4984507;28;21262;-63
2021/03/09 06:04:00;;;;;;;34.28;17.33;;;-3.00;99.90;;;;;;4981923;28;20496;-63
2021/03/09 06:06:26;;;;;;;34.55;17.42;;;-3.00;99.90;;;;;;4981673;28;20034;-63
2021/03/09 06:08:51;;;;;;;36.40;17.85;;;-2.90;99.90;;;;;;4985017;28;20030;-63
2021/03/09 06:11:19;;;;;;;34.03;17.55;;;-2.90;99.90;;;;;;4971470;28;20085;-63
2021/03/09 06:13:46;;;;;;;31.58;17.23;;;-2.90;99.90;;;;;;4985307;28;20038;-63
2021/03/09 06:16:12;;;;;;;37.17;16.85;;;-2.80;99.90;;;;;;4987614;28;20026;-67
2021/03/09 06:18:53;;;;;;;36.25;18.17;;;-2.80;99.90;;;;;;4964778;28;20026;-63
2021/03/09 06:21:19;;;;;;;35.78;16.85;;;-2.70;99.90;;;;;;4983842;28;20030;-63
2021/03/09 06:23:45;;;;;;;33.67;17.27;;;-2.70;99.90;;;;;;4990848;28;20029;-63
2021/03/09 06:26:34;;;;;;;29.38;15.65;;;-2.60;99.90;;;;;;4990028;28;20066;-66
2021/03/09 06:29:08;;;;;;;30.08;15.70;;;-2.60;99.90;;;;;;4981804;28;20097;-65
2021/03/09 06:31:34;;;;;;;28.23;16.20;;;-2.50;99.90;;;;;;4972017;28;20121;-63
2021/03/09 06:34:29;;;;;;;34.00;17.08;;;-2.50;99.90;;;;;;4986767;28;20423;-63
2021/03/09 06:37:19;;;;;;;27.67;15.52;;;-2.50;99.90;;;;;;4979625;28;20428;-63
2021/03/09 06:40:06;;;;;;;30.52;15.10;;;-2.40;99.90;;;;;;4976462;28;20047;-63
2021/03/09 06:42:35;;;;;;;27.30;14.45;;;-2.40;99.90;;;;;;4971117;28;20512;-63
2021/03/09 06:45:12;;;;;;;32.03;15.05;;;-2.30;99.90;;;;;;4972627;28;20468;-63
2021/03/09 06:47:44;;;;;;;33.38;16.45;;;-2.20;99.90;;;;;;4968325;28;20109;-63
2021/03/09 06:50:33;;;;;;;30.92;15.80;;;-2.20;99.90;;;;;;4963878;28;20023;-69
2021/03/09 06:53:01;;;;;;;27.08;15.07;;;-2.10;99.90;;;;;;4971244;28;20042;-72
2021/03/09 06:55:29;;;;;;;28.63;15.57;;;-1.90;99.90;;;;;;4971137;28;20058;-70
2021/03/09 06:58:06;;;;;;;28.48;15.65;;;-1.80;99.90;;;;;;4971918;28;20353;-63
2021/03/09 07:00:32;;;;;;;35.25;15.30;;;-1.70;99.90;;;;;;4970464;28;20034;-66
2021/03/09 07:02:58;;;;;;;27.83;15.15;;;-1.60;99.90;;;;;;4970536;28;20110;-64
2021/03/09 07:05:23;;;;;;;25.20;15.43;;;-1.40;99.90;;;;;;4972441;28;20101;-63
2021/03/09 07:07:49;;;;;;;26.50;15.15;;;-1.40;99.90;;;;;;4972566;28;20101;-63
2021/03/09 07:10:17;;;;;;;29.30;15.38;;;-1.30;99.90;;;;;;4973597;28;20023;-66
2021/03/09 07:12:45;;;;;;;24.17;14.20;;;-1.20;99.90;;;;;;4979255;28;20043;-63
2021/03/09 07:15:13;;;;;;;27.63;14.45;;;-1.10;99.90;;;;;;4956942;28;20046;-63
2021/03/09 07:17:40;;;;;;;31.25;15.20;;;-1.00;99.90;;;;;;4974327;28;20030;-64
2021/03/09 07:20:08;;;;;;;26.15;14.60;;;-0.80;99.90;;;;;;4970466;28;20031;-63
2021/03/09 07:22:35;;;;;;;30.65;14.98;;;-0.80;99.90;;;;;;4973575;28;20034;-74
2021/03/09 07:25:12;;;;;;;23.52;14.25;;;-0.70;99.90;;;;;;4957909;28;20388;-74
2021/03/09 07:28:00;;;;;;;25.65;15.10;;;-0.60;99.90;;;;;;4974142;28;20091;-74
2021/03/09 07:30:28;;;;;;;30.02;15.35;;;-0.40;99.90;;;;;;4974125;28;20023;-74
2021/03/09 07:32:56;;;;;;;24.23;14.55;;;-0.30;99.90;;;;;;4957081;28;20038;-74
2021/03/09 07:35:23;;;;;;;23.67;13.65;;;-0.10;99.90;;;;;;4973311;28;20170;-74
2021/03/09 07:37:50;;;;;;;24.90;13.88;;;0.00;99.90;;;;;;4957321;28;20054;-74
2021/03/09 07:40:21;;;;;;;22.23;13.73;;;0.10;99.90;;;;;;4964139;28;641915;-74
2021/03/09 07:42:47;;;;;;;27.05;14.20;;;0.30;99.90;;;;;;4977212;28;20027;-60
2021/03/09 07:45:15;;;;;;;24.30;14.00;;;0.40;99.70;;;;;;4988824;28;20539;-66
2021/03/09 07:47:51;;;;;;;31.65;14.88;;;0.50;99.50;;;;;;4976863;28;20031;-63
2021/03/09 07:50:18;;;;;;;24.77;14.02;;;0.70;98.40;;;;;;4991109;28;20081;-66
2021/03/09 07:53:11;;;;;;;28.05;14.48;;;0.80;96.20;;;;;;4970146;28;20092;-63
2021/03/09 07:55:41;;;;;;;26.95;15.18;;;0.90;96.40;;;;;;4988452;28;20035;-63
2021/03/09 07:58:19;;;;;;;;;;;1.00;95.80;;;;;;4980337;28;20030;-63
2021/03/09 08:01:04;;;;;;;24.30;14.00;;;1.10;94.40;;;;;;4976099;28;19914;-63
2021/03/09 08:03:37;;;;;;;22.08;13.43;;;1.20;94.00;;;;;;4976999;28;20392;-63
2021/03/09 08:06:08;;;;;;;28.02;16.00;;;1.30;94.60;;;;;;4986282;28;20472;-63
2021/03/09 08:08:42;;;;;;;25.13;14.80;;;1.40;93.20;;;;;;4992729;28;20060;-64
2021/03/09 08:11:27;;;;;;;26.33;15.88;;;1.50;93.70;;;;;;4982407;28;20121;-63
2021/03/09 08:14:05;;;;;;;29.23;15.45;;;1.60;91.70;;;;;;4990412;28;20066;-63
2021/03/09 08:16:43;;;;;;;28.30;15.20;;;1.70;91.30;;;;;;4967434;28;20035;-64
2021/03/09 08:19:10;;;;;;;29.05;15.73;;;1.70;91.00;;;;;;4983480;28;20528;-64
2021/03/09 08:21:39;;;;;;;33.47;16.02;;;1.80;90.90;;;;;;4981722;28;20026;-64
2021/03/09 08:24:08;;;;;;;29.02;16.48;;;1.80;90.80;;;;;;4974978;28;20380;-63
2021/03/09 08:26:34;;;;;;;33.08;16.90;;;1.90;90.70;;;;;;4978427;28;20500;-63
2021/03/09 08:29:00;;;;;;;35.13;16.30;;;2.00;90.70;;;;;;4991263;28;20030;-64
2021/03/09 08:31:26;;;;;;;32.15;17.83;;;2.00;90.70;;;;;;4974036;28;20042;-63
2021/03/09 08:34:07;;;;;;;32.28;17.58;;;2.10;90.30;;;;;;4985868;28;20445;-64
2021/03/09 08:36:36;;;;;;;34.03;18.10;;;2.20;90.50;;;;;;4992975;28;20038;-64
2021/03/09 08:41:27;;;;;;;30.35;16.48;;;2.40;88.80;;;;;;4977526;28;20031;-63
2021/03/09 08:44:19;;;;;;;34.35;18.42;;;2.50;88.70;;;;;;4975824;28;20034;-63
2021/03/09 08:47:00;;;;;;;27.17;15.43;;;2.70;87.90;;;;;;4982607;28;20101;-64
2021/03/09 08:49:35;;;;;;;26.92;16.80;;;2.90;86.20;;;;;;4976920;28;20034;-63
2021/03/09 08:52:02;;;;;;;35.03;17.98;;;3.10;85.50;;;;;;4975626;28;20035;-63
2021/03/09 08:54:36;;;;;;;27.50;16.52;;;3.30;84.10;;;;;;4983617;28;20034;-63
2021/03/09 08:57:08;;;;;;;28.63;16.90;;;3.40;82.20;;;;;;4991114;28;20030;-64
2021/03/09 08:59:35;;;;;;;28.60;16.55;;;3.50;81.90;;;;;;4987844;28;20038;-64
2021/03/09 09:02:17;;;;;;;26.58;17.20;;;3.60;81.30;;;;;;4980077;28;20106;-63
2021/03/09 09:04:55;;;;;;;27.58;17.15;;;3.80;81.10;;;;;;4981091;28;20092;-63
2021/03/09 09:07:27;;;;;;;33.10;16.95;;;3.90;79.80;;;;;;4980734;28;20041;-64
2021/03/09 09:09:58;;;;;;;33.45;17.48;;;4.00;79.70;;;;;;4980999;28;20121;-61
2021/03/09 09:12:30;;;;;;;31.50;18.38;;;4.10;79.60;;;;;;4984151;28;20098;-63
2021/03/09 09:15:25;;;;;;;26.92;17.05;;;4.20;78.50;;;;;;4984254;28;20030;-62
2021/03/09 09:17:53;;;;;;;27.50;17.02;;;4.50;76.80;;;;;;4983759;28;20026;-65
2021/03/09 09:20:28;;;;;;;29.33;18.38;;;4.50;76.80;;;;;;4976924;28;20125;-67
2021/03/09 09:22:54;;;;;;;29.73;17.77;;;4.60;76.90;;;;;;4976918;28;20035;-61
2021/03/09 09:25:22;;;;;;;33.88;18.60;;;4.70;76.40;;;;;;4977658;28;20133;-64
2021/03/09 09:27:48;;;;;;;29.80;18.67;;;4.80;75.60;;;;;;4976064;28;20027;-63
2021/03/09 09:30:20;;;;;;;29.10;18.80;;;4.80;75.30;;;;;;4960656;28;20086;-62
2021/03/09 09:32:50;;;;;;;30.30;17.55;;;5.00;75.40;;;;;;4973622;28;20057;-62
2021/03/09 09:35:17;;;;;;;29.73;19.50;;;5.10;74.20;;;;;;4973451;28;20039;-62
2021/03/09 09:37:52;;;;;;;31.45;16.75;;;5.20;74.30;;;;;;4974394;28;20027;-62
2021/03/09 09:40:21;;;;;;;32.08;17.13;;;5.20;73.30;;;;;;4975641;28;20054;-65
2021/03/09 09:43:02;;;;;;;28.17;17.00;;;5.20;73.00;;;;;;4981284;28;20484;-62
2021/03/09 09:45:29;;;;;;;30.90;17.17;;;5.30;73.40;;;;;;4971246;28;20034;-62
2021/03/09 09:47:56;;;;;;;29.40;16.95;;;5.30;73.40;;;;;;4971818;28;20376;-62
2021/03/09 09:50:23;;;;;;;31.70;18.27;;;5.30;73.70;;;;;;4980527;28;20579;-63
2021/03/09 09:52:53;;;;;;;26.95;17.33;;;5.50;72.30;;;;;;4971733;28;20039;-62
2021/03/09 09:55:27;;;;;;;28.85;17.55;;;5.50;72.00;;;;;;4975381;28;20023;-65
2021/03/09 09:57:54;;;;;;;28.48;17.17;;;5.60;71.80;;;;;;4976393;28;20030;-63
2021/03/09 10:00:29;;;;;;;28.23;17.73;;;5.60;71.80;;;;;;4972557;28;20057;-64
2021/03/09 10:03:13;;;;;;;26.45;16.80;;;5.80;70.60;;;;;;4971788;28;20027;-62
2021/03/09 10:05:40;;;;;;;28.90;17.10;;;5.80;71.40;;;;;;4954822;28;20049;-63
2021/03/09 10:08:06;;;;;;;35.25;17.33;;;5.90;71.00;;;;;;4971759;28;20030;-62
2021/03/09 10:10:33;;;;;;;29.42;17.63;;;6.00;69.90;;;;;;4954193;28;20027;-62
2021/03/09 10:12:59;;;;;;;26.90;16.85;;;6.20;69.30;;;;;;4972640;28;20490;-64
2021/03/09 10:15:45;;;;;;;27.15;17.55;;;6.20;69.40;;;;;;4974490;28;20027;-62
2021/03/09 10:18:15;;;;;;;29.50;17.10;;;6.20;69.60;;;;;;4973492;28;20037;-62
2021/03/09 10:20:41;;;;;;;30.48;17.58;;;6.30;69.50;;;;;;4971987;28;20014;-62
2021/03/09 10:23:07;;;;;;;30.15;18.05;;;6.40;69.10;;;;;;4975322;28;20082;-62
2021/03/09 10:25:32;;;;;;;25.17;16.15;;;6.70;67.80;;;;;;4971384;28;20023;-62
2021/03/09 10:28:02;;;;;;;29.60;17.30;;;6.70;67.20;;;;;;4972494;28;20391;-62
2021/03/09 10:30:44;;;;;;;29.35;17.75;;;6.80;67.30;;;;;;4960627;28;20464;-62
2021/03/09 10:33:11;;;;;;;29.20;16.70;;;6.80;67.30;;;;;;4954748;28;20047;-63
2021/03/09 10:36:03;;;;;;;31.33;16.80;;;7.00;66.50;;;;;;4971422;28;20042;-63
2021/03/09 10:38:29;;;;;;;30.48;17.13;;;7.10;66.10;;;;;;4975686;28;20151;-62
2021/03/09 10:40:55;;;;;;;33.58;15.75;;;7.10;66.50;;;;;;4991311;28;20049;-63
2021/03/09 10:43:45;;;;;;;26.88;17.80;;;7.20;65.40;;;;;;4978338;28;20062;-65
2021/03/09 10:46:12;;;;;;;26.88;15.95;;;7.30;65.90;;;;;;4977468;28;20042;-62
2021/03/09 10:48:40;;;;;;;32.70;17.38;;;7.30;65.00;;;;;;4977503;28;20129;-62
2021/03/09 10:51:19;;;;;;;26.42;17.17;;;7.40;65.00;;;;;;4991386;28;20033;-63
2021/03/09 10:53:45;;;;;;;26.47;16.90;;;7.50;64.10;;;;;;4983964;28;20059;-63
2021/03/09 10:56:12;;;;;;;30.85;16.13;;;7.60;63.70;;;;;;4972121;28;20432;-62
2021/03/09 10:58:37;;;;;;;36.05;16.25;;;7.60;63.80;;;;;;4981282;28;20118;-62
2021/03/09 11:01:03;;;;;;;30.15;16.33;;;7.60;63.80;;;;;;4955032;28;20118;-63
2021/03/09 11:03:29;;;;;;;36.58;17.75;;;7.70;63.10;;;;;;4987234;28;20096;-62
2021/03/09 11:05:55;;;;;;;26.73;16.83;;;7.70;63.60;;;;;;4989477;28;20034;-63
2021/03/09 11:08:22;;;;;;;36.08;17.02;;;7.80;63.10;;;;;;4981631;28;20093;-65
2021/03/09 11:10:50;;;;;;;31.27;16.40;;;7.80;62.60;;;;;;4974168;28;20050;-62
2021/03/09 11:13:17;;;;;;;26.02;15.65;;;7.70;63.10;;;;;;4982446;28;20395;-62
2021/03/09 11:15:42;;;;;;;26.38;17.40;;;7.80;62.60;;;;;;4985135;28;20101;-63
2021/03/09 11:18:08;;;;;;;29.45;15.55;;;7.80;62.90;;;;;;4980271;28;20435;-63
2021/03/09 11:20:34;;;;;;;23.05;15.45;;;7.90;62.60;;;;;;4990295;28;20026;-62
2021/03/09 11:22:59;;;;;;;23.30;14.98;;;7.90;62.20;;;;;;4991004;28;20034;-62
2021/03/09 11:25:26;;;;;;;23.65;15.52;;;8.00;61.60;;;;;;4979568;28;20440;-63
2021/03/09 11:27:53;;;;;;;26.42;15.63;;;7.90;61.50;;;;;;4986936;28;20472;-62
2021/03/09 11:30:19;;;;;;;24.70;14.48;;;8.00;62.00;;;;;;4985426;28;20023;-63
2021/03/09 11:32:45;;;;;;;23.08;14.25;;;8.00;61.10;;;;;;4972418;28;20042;-62
2021/03/09 11:35:11;;;;;;;22.42;13.35;;;8.10;61.20;;;;;;4971683;28;20031;-62
2021/03/09 11:37:37;;;;;;;20.42;13.48;;;8.20;60.30;;;;;;4981306;28;20117;-62
2021/03/09 11:40:05;;;;;;;20.77;13.68;;;8.20;59.70;;;;;;4970446;28;20130;-63
2021/03/09 11:42:31;;;;;;;27.17;12.88;;;8.30;60.20;;;;;;4967089;28;20063;-63
2021/03/09 11:44:56;;;;;;;20.75;13.27;;;8.30;59.90;;;;;;4968015;28;20500;-62
2021/03/09 11:47:22;;;;;;;19.08;13.00;;;8.40;59.30;;;;;;4968123;28;20034;-66
2021/03/09 11:49:48;;;;;;;23.15;13.98;;;8.50;58.90;;;;;;4975923;28;20113;-62
2021/03/09 11:52:13;;;;;;;29.23;15.73;;;8.70;57.20;;;;;;4970245;28;20041;-62
2021/03/09 11:54:39;;;;;;;18.98;12.25;;;8.80;57.10;;;;;;4970289;28;20050;-62
2021/03/09 11:57:05;;;;;;;15.43;10.75;;;8.90;56.20;;;;;;4975189;28;20043;-63
2021/03/09 11:59:30;;;;;;;19.15;11.38;;;8.90;55.80;;;;;;4974514;28;20027;-62
2021/03/09 12:01:56;;;;;;;16.75;10.98;;;8.90;56.00;;;;;;4974865;28;20031;-63
2021/03/09 12:04:22;;;;;;;16.88;11.85;;;8.90;54.70;;;;;;4974972;28;20038;-65
2021/03/09 12:06:48;;;;;;;14.05;9.43;;;8.90;56.00;;;;;;4976001;28;20178;-62
2021/03/09 12:09:14;;;;;;;19.83;9.68;;;8.90;55.20;;;;;;4974360;28;20023;-62
2021/03/09 12:11:40;;;;;;;15.65;10.05;;;8.90;54.10;;;;;;4974028;28;20118;-62
2021/03/09 12:14:06;;;;;;;14.68;10.30;;;9.00;54.70;;;;;;4974865;28;20165;-63
2021/03/09 12:16:31;;;;;;;14.77;9.88;;;9.00;53.60;;;;;;4974980;28;20062;-63
2021/03/09 12:18:57;;;;;;;15.48;10.07;;;9.10;53.90;;;;;;4975608;28;20031;-62
2021/03/09 12:21:23;;;;;;;14.35;10.57;;;9.20;53.50;;;;;;4972957;28;20468;-65
2021/03/09 12:23:48;;;;;;;16.75;10.05;;;9.50;52.00;;;;;;4974736;28;20034;-62
2021/03/09 12:26:14;;;;;;;15.52;9.00;;;9.60;51.80;;;;;;4974226;28;20157;-63
2021/03/09 12:28:40;;;;;;;14.15;9.05;;;9.80;51.00;;;;;;4974274;28;20027;-64
2021/03/09 12:31:05;;;;;;;15.77;9.55;;;9.90;50.70;;;;;;4974646;28;20132;-62
2021/03/09 12:33:32;;;;;;;15.60;8.93;;;10.00;50.00;;;;;;4974361;28;20038;-62
2021/03/09 12:35:58;;;;;;;10.68;8.50;;;10.00;50.00;;;;;;4974905;28;20039;-62
2021/03/09 12:38:26;;;;;;;10.85;8.70;;;10.10;48.20;;;;;;4978081;28;20152;-64
2021/03/09 12:40:52;;;;;;;13.65;8.85;;;10.10;48.30;;;;;;4983686;28;20483;-62
2021/03/09 12:43:17;;;;;;;10.65;7.57;;;10.10;48.80;;;;;;4980050;28;20042;-63